Time;durP1;ratioP1;P1;durP2;ratioP2;P2;SDS_P1;SDS_P2;PMS_P1;PMS_P2;Temp;Humidity;BMP_temperature;BMP_pressure;BME280_temperature;BME280_humidity;BME280_pressure;Samples;Min_cycle;Max_cycle;Signal;HPM_P1;HPM_P2
2021/03/25 00:00:37;;;;;;;60.97;36.00;;;;;;;;;;5048146;28;20227;-68
2021/03/25 00:03:03;;;;;;;61.47;35.90;;;;;;;;;;5047468;28;20692;-68
2021/03/25 00:05:30;;;;;;;58.00;35.70;;;;;;;;;;5046849;28;20651;-68
2021/03/25 00:07:55;;;;;;;63.77;35.90;;;;;;;;;;5045181;28;20655;-66
2021/03/25 00:10:22;;;;;;;51.20;33.87;;;;;;;;;;5043653;28;20786;-66
2021/03/25 00:12:48;;;;;;;56.93;35.03;;;;;;;;;;5041085;28;20217;-68
2021/03/25 00:15:13;;;;;;;53.13;34.03;;;;;;;;;;5048234;28;20231;-67
2021/03/25 00:17:38;;;;;;;60.27;35.33;;;;;;;;;;5047537;28;20874;-67
2021/03/25 00:20:06;;;;;;;62.27;36.07;;;;;;;;;;5045154;28;20194;-67
2021/03/25 00:22:31;;;;;;;63.80;36.37;;;;;;;;;;5044805;28;20235;-66
2021/03/25 00:24:57;;;;;;;62.37;37.27;;;;;;;;;;5044170;28;20201;-67
2021/03/25 00:27:22;;;;;;;56.40;36.23;;;;;;;;;;5042980;28;20181;-67
2021/03/25 00:29:47;;;;;;;61.53;34.90;;;;;;;;;;5050456;28;20215;-67
2021/03/25 00:32:12;;;;;;;55.77;33.03;;;;;;;;;;5048269;28;20220;-66
2021/03/25 00:34:37;;;;;;;53.50;34.07;;;;;;;;;;5047990;28;20661;-67
2021/03/25 00:37:03;;;;;;;59.30;34.90;;;;;;;;;;5051549;28;20215;-67
2021/03/25 00:39:28;;;;;;;54.93;34.53;;;;;;;;;;5039960;28;20537;-66
2021/03/25 00:41:53;;;;;;;58.10;33.77;;;;;;;;;;5049000;28;20629;-66
2021/03/25 00:44:18;;;;;;;52.23;31.90;;;;;;;;;;5048265;28;20184;-67
2021/03/25 00:46:44;;;;;;;54.30;34.57;;;;;;;;;;5049302;28;20185;-67
2021/03/25 00:49:09;;;;;;;54.80;34.27;;;;;;;;;;5044748;28;20547;-67
2021/03/25 00:51:34;;;;;;;57.13;33.40;;;;;;;;;;5037734;28;20202;-67
2021/03/25 00:53:59;;;;;;;55.57;33.60;;;;;;;;;;5046054;28;20173;-67
2021/03/25 00:56:25;;;;;;;56.90;32.53;;;;;;;;;;5047253;28;20572;-67
2021/03/25 00:58:50;;;;;;;57.00;32.13;;;;;;;;;;5033628;28;20173;-67
2021/03/25 01:01:15;;;;;;;63.90;37.23;;;;;;;;;;5042353;28;20240;-67
2021/03/25 01:03:40;;;;;;;57.63;33.93;;;;;;;;;;5047531;28;20182;-66
2021/03/25 01:06:06;;;;;;;52.53;31.33;;;;;;;;;;5048026;28;20182;-67
2021/03/25 01:08:31;;;;;;;58.70;33.67;;;;;;;;;;5045179;28;20209;-67
2021/03/25 01:11:01;;;;;;;60.13;32.77;;;;;;;;;;5045603;28;20220;-66
2021/03/25 01:13:26;;;;;;;58.57;33.47;;;;;;;;;;5040993;28;20217;-67
2021/03/25 01:15:51;;;;;;;45.90;30.00;;;;;;;;;;5048270;28;20185;-66
2021/03/25 01:18:17;;;;;;;50.53;30.67;;;;;;;;;;5047644;28;20215;-67
2021/03/25 01:20:42;;;;;;;46.47;30.87;;;;;;;;;;5047361;28;20198;-66
2021/03/25 01:23:08;;;;;;;53.33;31.93;;;;;;;;;;5047856;28;20184;-66
2021/03/25 01:25:34;;;;;;;51.43;31.90;;;;;;;;;;5048355;28;20185;-67
2021/03/25 01:28:00;;;;;;;47.00;31.20;;;;;;;;;;5049141;28;20209;-66
2021/03/25 01:30:26;;;;;;;52.90;32.60;;;;;;;;;;5048503;28;20202;-67
2021/03/25 01:32:52;;;;;;;46.77;32.27;;;;;;;;;;5047570;28;21413;-66
2021/03/25 01:35:17;;;;;;;61.90;36.73;;;;;;;;;;5049484;28;20177;-67
2021/03/25 01:37:43;;;;;;;51.07;32.97;;;;;;;;;;5048186;28;20280;-67
2021/03/25 01:40:20;;;;;;;53.97;33.80;;;;;;;;;;5051812;28;20200;-67
2021/03/25 01:42:45;;;;;;;53.60;33.23;;;;;;;;;;5034488;28;20193;-66
2021/03/25 01:45:29;;;;;;;53.93;33.70;;;;;;;;;;5049012;28;20189;-67
2021/03/25 01:47:55;;;;;;;52.73;31.70;;;;;;;;;;5045412;28;20189;-67
2021/03/25 01:50:20;;;;;;;51.33;32.43;;;;;;;;;;5047844;28;20190;-67
2021/03/25 01:53:05;;;;;;;56.33;34.73;;;;;;;;;;5045343;28;20232;-66
2021/03/25 01:55:36;;;;;;;57.20;34.70;;;;;;;;;;5044430;28;20596;-66
2021/03/25 01:58:13;;;;;;;59.73;36.17;;;;;;;;;;5038802;28;20252;-67
2021/03/25 02:00:40;;;;;;;52.67;33.57;;;;;;;;;;5045655;28;20259;-66
2021/03/25 02:03:21;;;;;;;60.17;37.27;;;;;;;;;;5047080;28;20212;-67
2021/03/25 02:05:53;;;;;;;64.87;35.87;;;;;;;;;;5048267;28;20200;-67
2021/03/25 02:08:40;;;;;;;61.60;36.37;;;;;;;;;;5048360;28;20553;-67
2021/03/25 02:11:14;;;;;;;58.83;34.77;;;;;;;;;;5044844;28;20270;-69
2021/03/25 02:13:42;;;;;;;63.03;36.17;;;;;;;;;;5046691;28;20210;-66
2021/03/25 02:16:11;;;;;;;59.83;36.67;;;;;;;;;;5037425;28;22971;-67
2021/03/25 02:18:39;;;;;;;54.90;33.00;;;;;;;;;;5040561;28;20213;-67
2021/03/25 02:21:19;;;;;;;57.83;33.63;;;;;;;;;;5052430;28;20202;-67
2021/03/25 02:24:06;;;;;;;61.70;36.87;;;;;;;;;;5050549;28;20610;-66
2021/03/25 02:26:34;;;;;;;59.47;36.40;;;;;;;;;;5049770;28;20650;-66
2021/03/25 02:29:14;;;;;;;65.83;37.83;;;;;;;;;;5048606;28;20178;-66
2021/03/25 02:31:41;;;;;;;63.97;36.77;;;;;;;;;;5049389;28;20205;-65
2021/03/25 02:34:08;;;;;;;64.17;37.13;;;;;;;;;;5044578;28;20177;-66
2021/03/25 02:36:42;;;;;;;63.20;37.83;;;;;;;;;;5049073;28;20665;-65
2021/03/25 02:39:14;;;;;;;72.73;39.97;;;;;;;;;;5047184;28;20174;-66
2021/03/25 02:41:42;;;;;;;59.33;35.87;;;;;;;;;;5047841;28;20184;-66
2021/03/25 02:44:18;;;;;;;59.07;34.90;;;;;;;;;;5045533;28;20177;-67
2021/03/25 02:46:50;;;;;;;63.60;36.10;;;;;;;;;;5047240;28;20196;-66
2021/03/25 02:49:18;;;;;;;62.87;36.50;;;;;;;;;;5044608;28;20182;-67
2021/03/25 02:51:48;;;;;;;74.17;38.13;;;;;;;;;;5047981;28;20213;-65
2021/03/25 02:54:13;;;;;;;66.07;38.93;;;;;;;;;;5048906;28;20181;-66
2021/03/25 02:56:49;;;;;;;80.87;40.90;;;;;;;;;;5044020;28;20261;-66
2021/03/25 02:59:16;;;;;;;76.97;42.30;;;;;;;;;;5052054;28;20192;-67
2021/03/25 03:01:45;;;;;;;68.63;39.40;;;;;;;;;;5049656;28;20177;-67
2021/03/25 03:04:29;;;;;;;66.10;39.13;;;;;;;;;;5043085;28;20178;-66
2021/03/25 03:07:00;;;;;;;77.53;43.97;;;;;;;;;;5052982;28;20181;-67
2021/03/25 03:09:28;;;;;;;78.70;43.60;;;;;;;;;;5044834;28;20209;-67
2021/03/25 03:11:55;;;;;;;75.80;41.80;;;;;;;;;;5052630;28;20697;-67
2021/03/25 03:14:39;;;;;;;77.83;42.37;;;;;;;;;;5048241;28;20655;-67
2021/03/25 03:17:06;;;;;;;81.00;43.30;;;;;;;;;;5050306;28;20192;-69
2021/03/25 03:19:33;;;;;;;78.87;42.53;;;;;;;;;;5048902;28;20205;-67
2021/03/25 03:22:00;;;;;;;84.77;44.37;;;;;;;;;;5046351;28;20201;-65
2021/03/25 03:24:26;;;;;;;83.70;44.40;;;;;;;;;;5048874;28;20180;-68
2021/03/25 03:26:53;;;;;;;78.90;45.17;;;;;;;;;;5051093;28;20181;-68
2021/03/25 03:29:20;;;;;;;78.13;44.33;;;;;;;;;;5049078;28;20177;-68
2021/03/25 03:31:48;;;;;;;85.07;46.03;;;;;;;;;;5049484;28;20216;-68
2021/03/25 03:34:23;;;;;;;81.80;45.47;;;;;;;;;;5051466;28;20584;-69
2021/03/25 03:36:50;;;;;;;85.67;45.30;;;;;;;;;;5051029;28;20173;-69
2021/03/25 03:39:18;;;;;;;81.77;44.47;;;;;;;;;;5048375;28;20269;-69
2021/03/25 03:41:49;;;;;;;76.60;43.07;;;;;;;;;;5051327;28;20184;-68
2021/03/25 03:44:17;;;;;;;80.23;43.40;;;;;;;;;;5046222;28;20609;-67
2021/03/25 03:46:44;;;;;;;76.20;42.07;;;;;;;;;;5052556;28;20220;-67
2021/03/25 03:49:14;;;;;;;72.03;42.97;;;;;;;;;;5047509;28;20181;-68
2021/03/25 03:51:47;;;;;;;80.00;44.83;;;;;;;;;;5046774;28;20181;-68
2021/03/25 03:54:13;;;;;;;72.17;41.63;;;;;;;;;;5046657;28;20255;-68
2021/03/25 03:56:57;;;;;;;70.63;44.30;;;;;;;;;;5050016;28;20613;-67
2021/03/25 03:59:41;;;;;;;73.97;43.33;;;;;;;;;;5044147;28;20174;-68
2021/03/25 04:02:25;;;;;;;78.53;42.60;;;;;;;;;;5016957;28;20191;-68
2021/03/25 04:04:55;;;;;;;73.03;43.00;;;;;;;;;;5031869;28;20725;-67
2021/03/25 04:07:23;;;;;;;83.80;46.60;;;;;;;;;;5025936;28;20273;-67
2021/03/25 04:09:51;;;;;;;84.77;45.40;;;;;;;;;;5023376;28;20568;-65
2021/03/25 04:12:26;;;;;;;76.33;44.00;;;;;;;;;;5024868;28;20288;-67
2021/03/25 04:14:57;;;;;;;75.80;44.47;;;;;;;;;;5025442;28;20216;-66
2021/03/25 04:17:26;;;;;;;90.20;45.30;;;;;;;;;;5023236;28;20201;-66
2021/03/25 04:19:52;;;;;;;86.43;44.93;;;;;;;;;;5023030;28;20193;-67
2021/03/25 04:22:28;;;;;;;79.77;46.30;;;;;;;;;;5030721;28;20604;-66
2021/03/25 04:24:54;;;;;;;83.20;47.73;;;;;;;;;;5022858;28;20312;-67
2021/03/25 04:27:39;;;;;;;83.43;46.13;;;;;;;;;;5022943;28;20178;-67
2021/03/25 04:30:06;;;;;;;72.03;41.27;;;;;;;;;;5024382;28;20309;-66
2021/03/25 04:32:31;;;;;;;82.00;43.40;;;;;;;;;;5027267;28;20222;-67
2021/03/25 04:34:59;;;;;;;87.97;47.50;;;;;;;;;;5025641;28;20189;-67
2021/03/25 04:37:26;;;;;;;84.87;46.27;;;;;;;;;;5029834;28;20189;-67
2021/03/25 04:39:52;;;;;;;79.13;45.17;;;;;;;;;;5026051;28;20213;-66
2021/03/25 04:42:17;;;;;;;85.50;45.37;;;;;;;;;;5023289;28;20192;-68
2021/03/25 04:44:42;;;;;;;77.40;45.37;;;;;;;;;;5025541;28;20674;-66
2021/03/25 04:47:21;;;;;;;78.50;43.45;;;;;;;;;;5025772;28;20189;-66
2021/03/25 04:49:57;;;;;;;78.47;45.00;;;;;;;;;;5023833;28;20237;-66
2021/03/25 04:52:26;;;;;;;74.90;43.70;;;;;;;;;;5026809;28;20213;-66
2021/03/25 04:54:52;;;;;;;77.23;45.10;;;;;;;;;;5021513;28;20240;-66
2021/03/25 04:57:26;;;;;;;77.83;43.40;;;;;;;;;;5024018;28;20193;-66
2021/03/25 04:59:53;;;;;;;78.63;45.37;;;;;;;;;;5022707;28;20764;-67
2021/03/25 05:02:18;;;;;;;81.17;44.97;;;;;;;;;;5023874;28;20190;-67
2021/03/25 05:04:47;;;;;;;86.00;46.20;;;;;;;;;;5027430;28;20290;-66
2021/03/25 05:07:16;;;;;;;79.60;43.60;;;;;;;;;;5024381;28;20190;-67
2021/03/25 05:09:42;;;;;;;80.33;45.77;;;;;;;;;;5023062;28;20213;-66
2021/03/25 05:12:07;;;;;;;82.30;44.33;;;;;;;;;;5022829;28;20210;-66
2021/03/25 05:14:32;;;;;;;89.13;46.67;;;;;;;;;;5028601;28;20178;-66
2021/03/25 05:17:10;;;;;;;76.37;41.33;;;;;;;;;;5024143;28;20227;-67
2021/03/25 05:19:44;;;;;;;80.03;42.70;;;;;;;;;;5021711;28;20266;-67
2021/03/25 05:22:28;;;;;;;81.37;42.67;;;;;;;;;;5025099;28;20192;-65
2021/03/25 05:24:59;;;;;;;72.97;43.53;;;;;;;;;;5024149;28;20243;-67
2021/03/25 05:27:32;;;;;;;66.90;40.00;;;;;;;;;;5021741;28;21830;-67
2021/03/25 05:29:58;;;;;;;82.13;44.37;;;;;;;;;;5023345;28;20209;-66
2021/03/25 05:32:25;;;;;;;83.87;43.60;;;;;;;;;;5025765;28;20210;-66
2021/03/25 05:34:52;;;;;;;73.63;42.17;;;;;;;;;;5022472;28;20190;-67
2021/03/25 05:37:18;;;;;;;80.33;42.37;;;;;;;;;;5024056;28;20177;-65
2021/03/25 05:39:43;;;;;;;83.77;42.47;;;;;;;;;;5028098;28;20570;-66
2021/03/25 05:42:27;;;;;;;78.20;44.73;;;;;;;;;;5024367;28;20201;-66
2021/03/25 05:45:17;;;;;;;77.53;42.23;;;;;;;;;;5024743;28;20189;-65
2021/03/25 05:47:45;;;;;;;86.80;44.63;;;;;;;;;;5025693;28;20194;-68
2021/03/25 05:50:20;;;;;;;83.97;44.93;;;;;;;;;;5028561;28;20203;-67
2021/03/25 05:52:53;;;;;;;82.03;44.67;;;;;;;;;;5025425;28;20670;-67
2021/03/25 05:55:37;;;;;;;81.13;42.20;;;;;;;;;;5025861;28;20179;-66
2021/03/25 05:58:18;;;;;;;76.10;42.43;;;;;;;;;;5027852;28;20687;-67
2021/03/25 06:00:52;;;;;;;75.70;39.70;;;;;;;;;;5026854;28;20642;-67
2021/03/25 06:03:19;;;;;;;75.80;41.17;;;;;;;;;;5033070;28;20190;-68
2021/03/25 06:05:45;;;;;;;76.53;41.93;;;;;;;;;;5030110;28;20228;-67
2021/03/25 06:08:17;;;;;;;81.53;43.67;;;;;;;;;;5030557;28;20189;-67
2021/03/25 06:10:49;;;;;;;71.53;40.23;;;;;;;;;;5024534;28;20221;-66
2021/03/25 06:13:27;;;;;;;74.17;42.27;;;;;;;;;;5025433;28;20296;-67
2021/03/25 06:16:04;;;;;;;84.30;43.53;;;;;;;;;;5032891;28;20734;-68
2021/03/25 06:18:48;;;;;;;78.03;43.50;;;;;;;;;;5029037;28;20651;-67
2021/03/25 06:21:23;;;;;;;74.03;41.03;;;;;;;;;;5028021;28;20224;-66
2021/03/25 06:24:02;;;;;;;73.20;42.10;;;;;;;;;;5027476;28;20194;-66
2021/03/25 06:26:35;;;;;;;85.60;44.57;;;;;;;;;;5029458;28;20189;-67
2021/03/25 06:29:04;;;;;;;87.27;44.73;;;;;;;;;;5031438;28;20209;-66
2021/03/25 06:31:30;;;;;;;80.40;43.20;;;;;;;;;;5036759;28;20206;-66
2021/03/25 06:34:14;;;;;;;85.27;44.87;;;;;;;;;;5024531;28;20178;-67
2021/03/25 06:36:39;;;;;;;71.13;42.47;;;;;;;;;;5025153;28;20182;-67
2021/03/25 06:39:05;;;;;;;71.80;39.93;;;;;;;;;;5026495;28;20244;-66
2021/03/25 06:42:06;;;;;;;66.37;38.13;;;;;;;;;;5025057;28;20443;-67
2021/03/25 06:44:43;;;;;;;66.53;37.40;;;;;;;;;;5031430;28;20418;-67
2021/03/25 06:47:17;;;;;;;59.63;37.23;;;;;;;;;;5026051;28;20197;-67
2021/03/25 06:49:46;;;;;;;62.87;38.10;;;;;;;;;;5024926;28;20674;-67
2021/03/25 06:52:24;;;;;;;59.57;37.23;;;;;;;;;;5032376;28;20306;-68
2021/03/25 06:54:52;;;;;;;61.97;37.03;;;;;;;;;;5026138;28;20182;-67
2021/03/25 06:57:18;;;;;;;59.70;36.83;;;;;;;;;;5028049;28;20186;-67
2021/03/25 06:59:44;;;;;;;60.67;35.53;;;;;;;;;;5024871;28;20241;-67
2021/03/25 07:02:19;;;;;;;58.80;36.43;;;;;;;;;;5023701;28;20192;-68
2021/03/25 07:04:45;;;;;;;54.57;36.70;;;;;;;;;;5030606;28;20181;-67
2021/03/25 07:07:15;;;;;;;55.87;35.90;;;;;;;;;;5027557;28;21393;-68
2021/03/25 07:09:40;;;;;;;59.90;37.27;;;;;;;;;;5024975;28;20512;-67
2021/03/25 07:12:07;;;;;;;59.20;36.17;;;;;;;;;;5023662;28;20242;-68
2021/03/25 07:14:37;;;;;;;55.40;36.47;;;;;;;;;;5032200;28;20221;-67
2021/03/25 07:17:03;;;;;;;54.67;33.97;;;;;;;;;;5024708;28;20189;-67
2021/03/25 07:19:28;;;;;;;59.87;36.47;;;;;;;;;;5024342;28;20678;-66
2021/03/25 07:22:14;;;;;;;60.60;38.43;;;;;;;;;;5029051;28;20186;-68
2021/03/25 07:24:39;;;;;;;56.67;35.23;;;;;;;;;;5023551;28;20273;-67
2021/03/25 07:27:04;;;;;;;53.97;35.43;;;;;;;;;;5024597;28;20186;-67
2021/03/25 07:29:34;;;;;;;60.27;36.37;;;;;;;;;;5024443;28;20205;-67
2021/03/25 07:32:05;;;;;;;57.87;34.43;;;;;;;;;;5026977;28;20297;-68
2021/03/25 07:34:36;;;;;;;53.80;34.50;;;;;;;;;;5029922;28;22060;-67
2021/03/25 07:37:02;;;;;;;51.77;34.83;;;;;;;;;;5027738;28;20664;-68
2021/03/25 07:39:29;;;;;;;53.80;34.13;;;;;;;;;;5031945;28;20265;-67
2021/03/25 07:41:56;;;;;;;52.30;33.90;;;;;;;;;;5023883;28;20214;-67
2021/03/25 07:44:24;;;;;;;57.87;34.87;;;;;;;;;;5023310;28;20231;-67
2021/03/25 07:46:50;;;;;;;55.53;33.37;;;;;;;;;;5024915;28;20224;-67
2021/03/25 07:49:24;;;;;;;53.97;34.07;;;;;;;;;;5025556;28;20308;-68
2021/03/25 07:51:49;;;;;;;52.60;33.93;;;;;;;;;;5025079;28;20370;-67
2021/03/25 07:54:18;;;;;;;51.13;32.10;;;;;;;;;;5022119;28;20549;-67
2021/03/25 07:57:02;;;;;;;44.03;32.87;;;;;;;;;;5022722;28;20181;-67
2021/03/25 07:59:40;;;;;;;53.23;31.07;;;;;;;;;;5025327;28;20196;-67
2021/03/25 08:02:24;;;;;;;47.03;32.40;;;;;;;;;;5024732;28;20178;-67
2021/03/25 08:04:49;;;;;;;53.47;32.47;;;;;;;;;;5024562;28;20175;-66
2021/03/25 08:07:14;;;;;;;47.97;32.20;;;;;;;;;;5030911;28;20236;-68
2021/03/25 08:09:45;;;;;;;40.90;30.77;;;;;;;;;;5024417;28;20197;-66
2021/03/25 08:12:19;;;;;;;44.77;30.40;;;;;;;;;;5023317;28;20190;-68
2021/03/25 08:14:44;;;;;;;47.83;30.53;;;;;;;;;;5022325;28;20269;-66
2021/03/25 08:17:10;;;;;;;43.10;30.20;;;;;;;;;;5030517;28;20624;-66
2021/03/25 08:19:37;;;;;;;41.80;28.70;;;;;;;;;;5025058;28;20212;-65
2021/03/25 08:22:09;;;;;;;48.33;30.13;;;;;;;;;;5026169;28;21052;-67
2021/03/25 08:24:52;;;;;;;39.90;30.30;;;;;;;;;;5034145;28;20197;-66
2021/03/25 08:27:30;;;;;;;45.00;31.33;;;;;;;;;;5031387;28;20660;-68
2021/03/25 08:30:07;;;;;;;46.47;30.30;;;;;;;;;;5024910;28;20291;-68
2021/03/25 08:32:41;;;;;;;49.33;30.80;;;;;;;;;;5026576;28;20300;-66
2021/03/25 08:35:12;;;;;;;43.73;28.83;;;;;;;;;;5023644;28;20178;-67
2021/03/25 08:37:37;;;;;;;43.90;31.03;;;;;;;;;;5025568;28;20300;-67
2021/03/25 08:40:21;;;;;;;50.17;31.27;;;;;;;;;;5024549;28;20201;-67
2021/03/25 08:42:51;;;;;;;44.90;30.43;;;;;;;;;;5024686;28;20493;-66
2021/03/25 08:45:23;;;;;;;49.07;28.23;;;;;;;;;;5025153;28;20228;-66
2021/03/25 08:47:55;;;;;;;41.50;29.00;;;;;;;;;;5023205;28;20189;-68
2021/03/25 08:50:20;;;;;;;46.93;28.90;;;;;;;;;;5024487;28;20697;-67
2021/03/25 08:52:45;;;;;;;41.53;28.17;;;;;;;;;;5025686;28;20204;-66
2021/03/25 08:55:22;;;;;;;40.40;28.60;;;;;;;;;;5024131;28;20189;-68
2021/03/25 08:57:49;;;;;;;40.73;28.57;;;;;;;;;;5022699;28;20206;-67
2021/03/25 09:00:19;;;;;;;40.27;29.47;;;;;;;;;;5022690;28;20201;-67
2021/03/25 09:02:52;;;;;;;41.83;29.40;;;;;;;;;;5024777;28;20183;-67
2021/03/25 09:05:26;;;;;;;38.73;28.07;;;;;;;;;;5023260;28;20169;-68
2021/03/25 09:07:52;;;;;;;40.87;27.30;;;;;;;;;;5034024;28;20208;-67
2021/03/25 09:10:37;;;;;;;46.43;30.17;;;;;;;;;;5023305;28;20202;-67
2021/03/25 09:13:02;;;;;;;44.13;28.60;;;;;;;;;;5023502;28;20339;-67
2021/03/25 09:15:28;;;;;;;36.77;27.43;;;;;;;;;;5027033;28;20690;-67
2021/03/25 09:17:58;;;;;;;36.67;28.47;;;;;;;;;;5025436;28;20247;-67
2021/03/25 09:20:34;;;;;;;41.70;27.10;;;;;;;;;;5027682;28;20213;-67
2021/03/25 09:23:00;;;;;;;41.87;27.27;;;;;;;;;;5025722;28;20211;-67
2021/03/25 09:25:25;;;;;;;36.57;25.07;;;;;;;;;;5031917;28;20187;-67
2021/03/25 09:27:56;;;;;;;36.10;25.47;;;;;;;;;;5033792;28;20688;-68
2021/03/25 09:30:40;;;;;;;39.17;26.80;;;;;;;;;;5030753;28;20446;-66
2021/03/25 09:33:24;;;;;;;35.73;25.30;;;;;;;;;;5032664;28;20294;-67
2021/03/25 09:35:49;;;;;;;41.50;23.77;;;;;;;;;;5027885;28;20336;-68
2021/03/25 09:38:25;;;;;;;34.83;25.87;;;;;;;;;;5032954;28;20619;-67
2021/03/25 09:40:51;;;;;;;36.03;24.80;;;;;;;;;;5038049;28;21265;-67
2021/03/25 09:43:25;;;;;;;34.27;23.03;;;;;;;;;;5028768;28;21806;-67
2021/03/25 09:45:51;;;;;;;31.27;22.53;;;;;;;;;;5027987;28;20188;-67
2021/03/25 09:48:21;;;;;;;31.00;20.93;;;;;;;;;;5027059;28;20189;-66
2021/03/25 09:51:14;;;;;;;27.17;20.23;;;;;;;;;;5028323;28;20631;-67
2021/03/25 09:53:46;;;;;;;29.67;20.40;;;;;;;;;;5025730;28;20233;-67
2021/03/25 09:56:17;;;;;;;30.47;21.50;;;;;;;;;;5027105;28;21130;-66
2021/03/25 09:58:44;;;;;;;27.00;18.27;;;;;;;;;;5027659;28;20250;-67
2021/03/25 10:01:29;;;;;;;25.87;15.40;;;;;;;;;;5028156;28;20201;-67
2021/03/25 10:03:59;;;;;;;37.17;16.70;;;;;;;;;;5027877;28;20190;-67
2021/03/25 10:06:44;;;;;;;26.67;16.53;;;;;;;;;;5029438;28;20192;-67
2021/03/25 10:09:09;;;;;;;21.57;15.47;;;;;;;;;;5029916;28;20197;-67
2021/03/25 10:11:47;;;;;;;22.20;14.60;;;;;;;;;;5027214;28;20294;-67
2021/03/25 10:14:31;;;;;;;17.93;13.63;;;;;;;;;;5027635;28;20910;-67
2021/03/25 10:16:56;;;;;;;19.87;12.33;;;;;;;;;;5027772;28;20174;-66
2021/03/25 10:19:40;;;;;;;13.60;11.10;;;;;;;;;;5030756;28;21303;-66
2021/03/25 10:22:15;;;;;;;17.17;12.27;;;;;;;;;;5032316;28;20231;-66
2021/03/25 10:24:43;;;;;;;22.13;11.60;;;;;;;;;;5026185;28;20185;-66
2021/03/25 10:27:20;;;;;;;19.53;12.97;;;;;;;;;;5027498;28;20189;-67
2021/03/25 10:29:46;;;;;;;15.10;12.40;;;;;;;;;;5024604;28;20287;-67
2021/03/25 10:32:16;;;;;;;20.10;14.90;;;;;;;;;;5030837;28;20637;-66
2021/03/25 10:34:42;;;;;;;18.10;13.20;;;;;;;;;;5025572;28;20217;-66
2021/03/25 10:37:24;;;;;;;26.47;14.40;;;;;;;;;;5026035;28;20174;-67
2021/03/25 10:39:50;;;;;;;18.07;13.43;;;;;;;;;;5026140;28;20263;-66
2021/03/25 10:42:26;;;;;;;16.17;13.33;;;;;;;;;;5026660;28;20198;-66
2021/03/25 10:44:52;;;;;;;19.93;15.00;;;;;;;;;;5027296;28;20269;-65
2021/03/25 10:47:21;;;;;;;22.83;16.43;;;;;;;;;;5028079;28;20202;-66
2021/03/25 10:49:48;;;;;;;20.37;15.23;;;;;;;;;;5025307;28;20210;-68
2021/03/25 10:52:18;;;;;;;22.10;16.90;;;;;;;;;;5030791;28;20575;-68
2021/03/25 10:54:44;;;;;;;20.87;16.30;;;;;;;;;;5024122;28;20199;-67
2021/03/25 10:57:21;;;;;;;24.73;17.33;;;;;;;;;;5033198;28;20681;-66
2021/03/25 10:59:48;;;;;;;27.63;19.10;;;;;;;;;;5024641;28;20482;-65
2021/03/25 11:02:19;;;;;;;30.73;20.60;;;;;;;;;;5023772;28;20876;-67
2021/03/25 11:04:45;;;;;;;32.77;21.17;;;;;;;;;;5026264;28;20770;-67
2021/03/25 11:07:10;;;;;;;32.77;21.40;;;;;;;;;;5033540;28;20188;-66
2021/03/25 11:09:35;;;;;;;35.37;23.03;;;;;;;;;;5024662;28;20217;-66
2021/03/25 11:12:21;;;;;;;38.90;23.03;;;;;;;;;;5025215;28;20210;-67
2021/03/25 11:14:50;;;;;;;36.57;22.30;;;;;;;;;;5024840;28;20186;-67
2021/03/25 11:17:21;;;;;;;31.63;21.30;;;;;;;;;;5026393;28;20186;-66
2021/03/25 11:19:49;;;;;;;36.70;23.03;;;;;;;;;;5026533;28;20206;-65
2021/03/25 11:22:15;;;;;;;34.50;22.03;;;;;;;;;;5025189;28;20189;-66
2021/03/25 11:24:40;;;;;;;42.13;23.83;;;;;;;;;;5025701;28;20205;-67
2021/03/25 11:27:07;;;;;;;39.93;23.83;;;;;;;;;;5028651;28;20257;-67
2021/03/25 11:29:36;;;;;;;38.03;22.90;;;;;;;;;;5023887;28;20592;-66
2021/03/25 11:32:23;;;;;;;37.60;23.27;;;;;;;;;;5024228;28;20694;-66
2021/03/25 11:34:49;;;;;;;41.83;23.40;;;;;;;;;;5026599;28;20243;-65
2021/03/25 11:37:20;;;;;;;35.67;21.50;;;;;;;;;;5025105;28;20748;-67
2021/03/25 11:39:55;;;;;;;35.87;21.40;;;;;;;;;;5023027;28;20193;-67
2021/03/25 11:42:22;;;;;;;37.17;21.57;;;;;;;;;;5025522;28;20268;-66
2021/03/25 11:44:48;;;;;;;32.67;20.67;;;;;;;;;;5023686;28;20186;-66
2021/03/25 11:47:19;;;;;;;33.90;21.20;;;;;;;;;;5024480;28;20244;-67
2021/03/25 11:49:44;;;;;;;37.50;21.00;;;;;;;;;;5024347;28;20206;-67
2021/03/25 11:52:12;;;;;;;32.03;20.77;;;;;;;;;;5026302;28;20205;-67
2021/03/25 11:54:37;;;;;;;26.93;18.80;;;;;;;;;;5024866;28;20209;-67
2021/03/25 11:57:23;;;;;;;28.70;18.60;;;;;;;;;;5033376;28;20185;-68
2021/03/25 11:59:49;;;;;;;26.73;18.13;;;;;;;;;;5023667;28;20848;-67
2021/03/25 12:02:18;;;;;;;33.85;18.48;;;;;;;;;;5024034;28;20269;-68
2021/03/25 12:04:43;;;;;;;25.00;17.17;;;;;;;;;;5024746;28;20350;-67
2021/03/25 12:07:08;;;;;;;26.98;18.20;;;;;;;;;;5044987;28;20217;-68
2021/03/25 12:09:34;;;;;;;24.33;17.08;;;;;;;;;;5051770;28;20239;-68
2021/03/25 12:12:01;;;;;;;25.70;16.13;;;;;;;;;;5054613;28;20446;-68
2021/03/25 12:14:26;;;;;;;25.73;16.53;;;;;;;;;;5037158;28;20174;-66
2021/03/25 12:16:56;;;;;;;23.27;14.87;;;;;;;;;;5025009;28;20186;-68
2021/03/25 12:19:21;;;;;;;25.33;16.70;;;;;;;;;;5032367;28;20185;-68
2021/03/25 12:21:47;;;;;;;21.38;15.35;;;;;;;;;;5025710;28;20186;-68
2021/03/25 12:24:12;;;;;;;23.63;15.77;;;;;;;;;;5024134;28;20213;-67
2021/03/25 12:26:38;;;;;;;26.45;16.02;;;;;;;;;;5027196;28;20201;-68
2021/03/25 12:29:03;;;;;;;20.65;14.77;;;;;;;;;;5027629;28;20176;-68
2021/03/25 12:31:30;;;;;;;21.67;15.65;;;;;;;;;;5023332;28;20198;-66
2021/03/25 12:33:55;;;;;;;17.90;13.13;;;;;;;;;;5027024;28;20712;-67
2021/03/25 12:36:20;;;;;;;19.08;13.50;;;;;;;;;;5030624;28;20236;-68
2021/03/25 12:38:46;;;;;;;20.50;14.10;;;;;;;;;;5024452;28;20174;-68
2021/03/25 12:41:17;;;;;;;15.48;12.07;;;;;;;;;;5023736;28;20223;-67
2021/03/25 12:43:43;;;;;;;17.60;12.45;;;;;;;;;;5025724;28;20677;-68
2021/03/25 12:46:08;;;;;;;15.93;11.85;;;;;;;;;;5024607;28;20173;-68
2021/03/25 12:48:34;;;;;;;17.88;12.25;;;;;;;;;;5021579;28;20213;-66
2021/03/25 12:51:00;;;;;;;17.30;12.00;;;;;;;;;;5024957;28;20213;-67
2021/03/25 12:53:26;;;;;;;21.38;12.02;;;;;;;;;;5025213;28;21081;-68
2021/03/25 12:55:51;;;;;;;16.48;11.23;;;;;;;;;;5023504;28;21452;-67
2021/03/25 12:58:18;;;;;;;15.35;10.02;;;;;;;;;;5026778;28;20231;-67
2021/03/25 13:00:43;;;;;;;14.82;10.20;;;;;;;;;;5024230;28;20272;-67
2021/03/25 13:03:09;;;;;;;14.38;8.70;;;;;;;;;;5024107;28;20584;-66
2021/03/25 13:05:34;;;;;;;12.90;7.63;;;;;;;;;;5029418;28;20181;-68
2021/03/25 13:07:59;;;;;;;9.40;7.15;;;;;;;;;;5028276;28;20275;-68
2021/03/25 13:10:29;;;;;;;11.88;7.40;;;;;;;;;;5024030;28;20652;-68
2021/03/25 13:12:55;;;;;;;13.05;8.45;;;;;;;;;;5023869;28;20271;-68
2021/03/25 13:15:22;;;;;;;13.35;8.65;;;;;;;;;;5023757;28;20186;-68
2021/03/25 13:17:47;;;;;;;11.23;7.07;;;;;;;;;;5027526;28;20217;-68
2021/03/25 13:20:14;;;;;;;14.40;7.13;;;;;;;;;;5023958;28;20304;-68
2021/03/25 13:22:39;;;;;;;13.35;7.38;;;;;;;;;;5024372;28;20561;-68
2021/03/25 13:25:06;;;;;;;10.80;6.72;;;;;;;;;;5025835;28;20209;-68
2021/03/25 13:27:31;;;;;;;13.45;7.40;;;;;;;;;;5023882;28;20651;-68
2021/03/25 13:29:56;;;;;;;13.48;7.43;;;;;;;;;;5024648;28;20225;-68
2021/03/25 13:32:21;;;;;;;12.77;6.65;;;;;;;;;;5025231;28;20205;-68
2021/03/25 13:34:47;;;;;;;10.17;6.13;;;;;;;;;;5022741;28;20228;-67
2021/03/25 13:37:12;;;;;;;9.50;5.32;;;;;;;;;;5023998;28;20469;-68
2021/03/25 13:39:37;;;;;;;7.00;3.88;;;;;;;;;;5023897;28;20627;-68
2021/03/25 13:42:03;;;;;;;7.20;3.92;;;;;;;;;;5022193;28;20668;-67
2021/03/25 13:44:28;;;;;;;7.43;3.28;;;;;;;;;;5024913;28;20173;-68
2021/03/25 13:46:53;;;;;;;9.98;3.95;;;;;;;;;;5023090;28;20175;-68
2021/03/25 13:49:18;;;;;;;7.85;3.70;;;;;;;;;;5028900;28;20186;-68
2021/03/25 13:51:44;;;;;;;9.02;3.30;;;;;;;;;;5027564;28;20227;-68
2021/03/25 13:54:09;;;;;;;8.52;3.85;;;;;;;;;;5022759;28;20210;-67
2021/03/25 13:56:35;;;;;;;9.05;4.03;;;;;;;;;;5024291;28;20193;-68
2021/03/25 13:59:00;;;;;;;6.00;3.40;;;;;;;;;;5032448;28;20178;-68
2021/03/25 14:01:26;;;;;;;4.78;2.75;;;;;;;;;;5022643;28;20206;-68
2021/03/25 14:03:51;;;;;;;6.80;3.72;;;;;;;;;;5026874;28;20713;-67
2021/03/25 14:06:16;;;;;;;7.40;3.03;;;;;;;;;;5026348;28;20289;-68
2021/03/25 14:08:42;;;;;;;6.53;2.20;;;;;;;;;;5027334;28;20287;-68
2021/03/25 14:11:07;;;;;;;7.18;3.45;;;;;;;;;;5021995;28;20308;-68
2021/03/25 14:13:32;;;;;;;7.25;1.90;;;;;;;;;;5026595;28;20209;-67
2021/03/25 14:15:57;;;;;;;5.43;1.90;;;;;;;;;;5026607;28;20227;-67
2021/03/25 14:18:24;;;;;;;4.57;2.58;;;;;;;;;;5032051;28;20190;-67
2021/03/25 14:20:50;;;;;;;4.25;2.00;;;;;;;;;;5030936;28;20832;-68
2021/03/25 14:23:16;;;;;;;8.20;1.52;;;;;;;;;;5027201;28;20178;-69
2021/03/25 14:25:43;;;;;;;3.58;1.70;;;;;;;;;;5025388;28;20913;-67
2021/03/25 14:28:13;;;;;;;4.22;1.70;;;;;;;;;;5029528;28;20720;-68
2021/03/25 14:30:39;;;;;;;7.00;1.48;;;;;;;;;;5024497;28;20202;-68
2021/03/25 14:33:05;;;;;;;3.47;1.30;;;;;;;;;;5031782;28;20591;-68